Time;durP1;ratioP1;P1;durP2;ratioP2;P2;SDS_P1;SDS_P2;PMS_P1;PMS_P2;Temp;Humidity;BMP_temperature;BMP_pressure;BME280_temperature;BME280_humidity;BME280_pressure;Samples;Min_cycle;Max_cycle;Signal;HPM_P1;HPM_P2
2023/07/02 00:00:59;;;;;;;6.22;4.85;;;23.50;70.90;;;;;;5074694;28;20025;-52
2023/07/02 00:03:25;;;;;;;7.22;4.72;;;23.50;71.00;;;;;;5074705;28;20033;-53
2023/07/02 00:05:54;;;;;;;5.20;4.70;;;23.50;71.10;;;;;;5074034;28;20061;-51
2023/07/02 00:08:21;;;;;;;5.00;4.50;;;23.50;71.10;;;;;;5073786;28;20096;-51
2023/07/02 00:10:46;;;;;;;6.45;5.07;;;23.50;71.20;;;;;;5073198;28;20514;-51
2023/07/02 00:13:12;;;;;;;5.40;4.90;;;23.50;71.20;;;;;;5073382;28;20086;-52
2023/07/02 00:15:38;;;;;;;5.35;4.57;;;23.50;71.30;;;;;;5073213;28;20029;-53
2023/07/02 00:18:04;;;;;;;5.47;4.97;;;23.40;71.20;;;;;;5073087;28;20024;-52
2023/07/02 00:20:30;;;;;;;6.10;5.50;;;23.40;71.40;;;;;;5073306;28;20056;-53
2023/07/02 00:22:56;;;;;;;6.65;5.35;;;23.40;71.40;;;;;;5073352;28;20041;-53
2023/07/02 00:25:21;;;;;;;5.55;4.95;;;23.40;71.50;;;;;;5073747;28;20081;-51
2023/07/02 00:27:47;;;;;;;5.90;5.30;;;23.40;71.50;;;;;;5074044;28;20075;-53
2023/07/02 00:30:13;;;;;;;5.78;5.28;;;23.40;71.60;;;;;;5074164;28;20021;-51
2023/07/02 00:32:39;;;;;;;5.85;5.25;;;23.40;71.60;;;;;;5074763;28;20032;-50
2023/07/02 00:35:05;;;;;;;5.10;4.60;;;23.30;71.50;;;;;;5074907;28;20051;-52
2023/07/02 00:37:31;;;;;;;6.57;5.05;;;23.30;71.50;;;;;;5074609;28;20081;-52
2023/07/02 00:39:57;;;;;;;6.03;5.53;;;23.40;71.50;;;;;;5074344;28;20049;-51
2023/07/02 00:42:23;;;;;;;5.65;5.05;;;23.30;71.40;;;;;;5075036;28;20033;-53
2023/07/02 00:44:52;;;;;;;6.20;5.45;;;23.30;71.40;;;;;;5077221;28;20024;-51
2023/07/02 00:47:17;;;;;;;5.55;5.05;;;23.30;71.40;;;;;;5079592;28;20013;-52
2023/07/02 00:49:43;;;;;;;5.72;4.95;;;23.30;71.40;;;;;;5079461;28;20032;-54
2023/07/02 00:52:10;;;;;;;5.70;5.10;;;23.30;71.40;;;;;;5079767;28;20068;-54
2023/07/02 00:54:36;;;;;;;6.47;5.85;;;23.30;71.50;;;;;;5079529;28;20041;-52
2023/07/02 00:57:02;;;;;;;5.65;5.05;;;23.30;72.20;;;;;;5079954;28;20033;-50
2023/07/02 00:59:29;;;;;;;5.07;4.57;;;23.30;71.40;;;;;;5079635;28;20029;-52
2023/07/02 01:01:56;;;;;;;5.88;4.60;;;23.30;71.40;;;;;;5079650;28;20012;-52
2023/07/02 01:04:27;;;;;;;6.10;5.03;;;23.30;71.40;;;;;;5079706;28;20025;-52
2023/07/02 01:06:57;;;;;;;5.10;4.60;;;23.30;71.60;;;;;;5080049;28;20060;-50
2023/07/02 01:09:25;;;;;;;5.50;5.00;;;23.30;71.60;;;;;;5080153;28;20024;-50
2023/07/02 01:11:58;;;;;;;5.63;5.07;;;23.30;71.60;;;;;;5080227;28;20029;-50
2023/07/02 01:14:31;;;;;;;6.07;5.30;;;23.30;71.60;;;;;;5080140;28;20085;-52
2023/07/02 01:16:58;;;;;;;6.22;5.50;;;23.20;71.50;;;;;;5080419;28;20009;-53
2023/07/02 01:19:45;;;;;;;5.57;5.07;;;23.20;71.60;;;;;;5080018;28;20036;-53
2023/07/02 01:22:12;;;;;;;5.32;4.82;;;23.20;71.50;;;;;;5080013;28;20045;-50
2023/07/02 01:24:41;;;;;;;6.10;5.43;;;23.20;71.50;;;;;;5080246;28;20089;-52
2023/07/02 01:27:07;;;;;;;6.65;5.60;;;23.20;71.60;;;;;;5080204;28;20035;-53
2023/07/02 01:29:36;;;;;;;5.38;4.88;;;23.20;71.80;;;;;;5080089;28;20013;-53
2023/07/02 01:32:02;;;;;;;5.80;5.20;;;23.20;71.90;;;;;;5079940;28;20137;-50
2023/07/02 01:34:28;;;;;;;5.20;4.70;;;23.20;71.90;;;;;;5079964;28;20035;-52
2023/07/02 01:36:54;;;;;;;5.47;4.97;;;23.20;71.90;;;;;;5079762;28;20029;-50
2023/07/02 01:39:20;;;;;;;5.70;5.13;;;23.20;72.00;;;;;;5079963;28;20035;-53
2023/07/02 01:41:53;;;;;;;6.03;5.47;;;23.20;72.10;;;;;;5080200;28;20059;-50
2023/07/02 01:44:20;;;;;;;6.70;5.28;;;23.20;71.90;;;;;;5079834;28;20024;-54
2023/07/02 01:46:48;;;;;;;6.10;5.50;;;23.10;72.10;;;;;;5079891;28;20475;-49
2023/07/02 01:49:17;;;;;;;6.55;5.90;;;23.10;72.20;;;;;;5079582;28;20076;-50
2023/07/02 01:51:52;;;;;;;5.22;4.72;;;23.10;72.30;;;;;;5079714;28;20036;-51
2023/07/02 01:54:19;;;;;;;5.80;5.00;;;23.10;72.30;;;;;;5079614;28;20021;-53
2023/07/02 01:56:45;;;;;;;5.30;4.78;;;23.10;72.50;;;;;;5079475;28;20118;-52
2023/07/02 01:59:11;;;;;;;5.88;5.15;;;23.10;72.40;;;;;;5079391;28;20037;-50
2023/07/02 02:01:40;;;;;;;5.85;5.25;;;23.10;72.60;;;;;;5079649;28;20018;-51
2023/07/02 02:04:09;;;;;;;6.53;5.93;;;23.10;72.60;;;;;;5079207;28;20032;-51
2023/07/02 02:06:35;;;;;;;6.70;5.75;;;23.10;72.60;;;;;;5078982;28;20067;-53
2023/07/02 02:09:03;;;;;;;6.30;5.70;;;23.00;72.60;;;;;;5078904;28;20037;-53
2023/07/02 02:11:28;;;;;;;6.20;5.60;;;23.00;72.60;;;;;;5078816;28;20013;-53
2023/07/02 02:13:54;;;;;;;6.20;5.60;;;23.10;72.90;;;;;;5078684;28;20036;-51
2023/07/02 02:16:20;;;;;;;6.10;5.50;;;23.10;72.80;;;;;;5078830;28;20043;-53
2023/07/02 02:18:46;;;;;;;7.50;6.75;;;23.10;73.00;;;;;;5078698;28;20040;-52
2023/07/02 02:21:12;;;;;;;6.28;5.68;;;23.00;73.10;;;;;;5078494;28;20021;-53
2023/07/02 02:23:37;;;;;;;6.05;5.45;;;23.00;73.10;;;;;;5078230;28;20056;-53
2023/07/02 02:26:03;;;;;;;7.05;6.18;;;23.10;73.30;;;;;;5078229;28;20052;-49
2023/07/02 02:28:29;;;;;;;6.32;5.72;;;23.00;73.30;;;;;;5078078;28;20025;-52
2023/07/02 02:30:54;;;;;;;5.88;5.28;;;23.00;73.40;;;;;;5077670;28;20029;-53
2023/07/02 02:33:21;;;;;;;6.78;6.18;;;23.00;73.50;;;;;;5077454;28;20044;-54
2023/07/02 02:35:48;;;;;;;6.65;5.95;;;23.00;73.70;;;;;;5077431;28;20039;-52
2023/07/02 02:38:14;;;;;;;7.18;6.43;;;23.10;73.80;;;;;;5077043;28;20037;-52
2023/07/02 02:40:40;;;;;;;6.13;5.53;;;23.10;73.80;;;;;;5077083;28;20051;-53
2023/07/02 02:43:05;;;;;;;5.70;5.20;;;23.00;73.80;;;;;;5077019;28;20098;-52
2023/07/02 02:45:31;;;;;;;6.65;6.00;;;23.10;73.80;;;;;;5077169;28;20558;-52
2023/07/02 02:47:57;;;;;;;6.90;6.20;;;23.00;73.80;;;;;;5077156;28;20033;-54
2023/07/02 02:50:22;;;;;;;5.75;5.25;;;23.10;74.00;;;;;;5076724;28;20112;-54
2023/07/02 02:52:48;;;;;;;6.60;6.00;;;23.10;74.00;;;;;;5077287;28;20045;-51
2023/07/02 02:55:14;;;;;;;6.43;5.82;;;23.10;74.20;;;;;;5077128;28;20020;-53
2023/07/02 02:57:40;;;;;;;5.45;4.95;;;23.10;74.20;;;;;;5077142;28;20048;-51
2023/07/02 03:00:06;;;;;;;7.43;5.70;;;23.10;74.30;;;;;;5077158;28;20041;-53
2023/07/02 03:02:32;;;;;;;5.82;5.30;;;23.10;74.40;;;;;;5077046;28;20029;-50
2023/07/02 03:05:04;;;;;;;5.72;5.15;;;23.10;74.40;;;;;;5076069;28;20071;-53
2023/07/02 03:07:30;;;;;;;6.13;5.53;;;23.20;74.40;;;;;;5076028;28;20029;-52
2023/07/02 03:09:55;;;;;;;5.75;5.25;;;23.20;74.40;;;;;;5076458;28;20021;-51
2023/07/02 03:12:22;;;;;;;6.80;6.18;;;23.30;74.30;;;;;;5076228;28;20017;-51
2023/07/02 03:14:52;;;;;;;6.38;5.53;;;23.30;74.30;;;;;;5076437;28;20013;-51
2023/07/02 03:17:19;;;;;;;6.07;5.53;;;23.30;74.20;;;;;;5076372;28;20016;-52
2023/07/02 03:19:44;;;;;;;5.13;4.63;;;23.40;74.00;;;;;;5076054;28;20056;-50
2023/07/02 03:22:10;;;;;;;5.95;5.35;;;23.50;74.10;;;;;;5075947;28;20021;-51
2023/07/02 03:24:36;;;;;;;5.70;5.05;;;23.50;74.00;;;;;;5075774;28;20033;-53
2023/07/02 03:27:02;;;;;;;5.85;5.28;;;23.50;74.00;;;;;;5075812;28;20025;-52
2023/07/02 03:29:28;;;;;;;5.10;4.60;;;23.60;74.00;;;;;;5075082;28;20039;-54
2023/07/02 03:31:53;;;;;;;5.68;5.07;;;23.60;73.80;;;;;;5075185;28;20155;-51
2023/07/02 03:34:19;;;;;;;4.97;4.47;;;23.60;73.80;;;;;;5075275;28;20017;-52
2023/07/02 03:36:45;;;;;;;4.90;4.50;;;23.70;73.60;;;;;;5074380;28;20025;-51
2023/07/02 03:39:10;;;;;;;4.70;4.25;;;23.70;73.50;;;;;;5074801;28;20025;-51
2023/07/02 03:41:36;;;;;;;5.00;4.50;;;23.70;73.20;;;;;;5074550;28;20039;-53
2023/07/02 03:44:01;;;;;;;4.90;4.40;;;23.70;73.10;;;;;;5074332;28;20093;-54
2023/07/02 03:46:27;;;;;;;4.97;4.50;;;23.80;73.10;;;;;;5074053;28;20036;-52
2023/07/02 03:48:53;;;;;;;5.10;4.60;;;23.80;73.00;;;;;;5074537;28;20029;-52
2023/07/02 03:51:18;;;;;;;5.50;4.90;;;23.80;73.10;;;;;;5073887;28;20025;-53
2023/07/02 03:53:44;;;;;;;5.28;4.63;;;23.80;73.00;;;;;;5074062;28;20089;-50
2023/07/02 03:56:10;;;;;;;5.07;4.55;;;23.90;73.20;;;;;;5073644;28;20029;-52
2023/07/02 03:58:35;;;;;;;4.93;4.47;;;23.90;73.10;;;;;;5073423;28;20047;-52
2023/07/02 04:01:01;;;;;;;4.78;4.38;;;24.00;73.20;;;;;;5073642;28;20029;-51
2023/07/02 04:03:27;;;;;;;5.10;4.38;;;24.00;73.10;;;;;;5073536;28;20059;-53
2023/07/02 04:05:52;;;;;;;5.68;4.47;;;24.00;72.90;;;;;;5073271;28;20051;-52
2023/07/02 04:08:20;;;;;;;5.13;4.63;;;24.00;72.70;;;;;;5072750;28;20029;-50
2023/07/02 04:10:46;;;;;;;5.82;5.22;;;24.10;72.50;;;;;;5073433;28;20032;-51
2023/07/02 04:13:12;;;;;;;4.32;3.78;;;24.10;72.20;;;;;;5073536;28;20037;-49
2023/07/02 04:15:38;;;;;;;4.82;4.32;;;24.20;72.20;;;;;;5073107;28;20025;-51
2023/07/02 04:18:03;;;;;;;5.03;4.53;;;24.30;72.20;;;;;;5073078;28;20013;-52
2023/07/02 04:20:29;;;;;;;5.15;4.32;;;24.40;72.30;;;;;;5073324;28;20064;-53
2023/07/02 04:22:55;;;;;;;5.03;4.53;;;24.60;72.20;;;;;;5073712;28;20037;-50
2023/07/02 04:25:21;;;;;;;4.28;3.88;;;24.80;72.20;;;;;;5074179;28;20055;-53
2023/07/02 04:27:47;;;;;;;4.40;4.00;;;25.20;72.50;;;;;;5074184;28;20029;-52
2023/07/02 04:30:14;;;;;;;4.35;3.95;;;26.00;72.20;;;;;;5075556;28;20043;-54
2023/07/02 04:32:40;;;;;;;4.85;3.92;;;26.90;71.00;;;;;;5075820;28;20025;-52
2023/07/02 04:35:07;;;;;;;3.70;3.40;;;28.00;69.60;;;;;;5075862;28;20056;-53
2023/07/02 04:37:32;;;;;;;4.80;3.55;;;29.00;67.80;;;;;;5074861;28;20024;-52
2023/07/02 04:39:58;;;;;;;3.70;3.40;;;29.90;66.10;;;;;;5072188;28;20028;-52
2023/07/02 04:42:31;;;;;;;3.33;3.03;;;30.80;64.70;;;;;;5072333;28;20012;-53
2023/07/02 04:45:02;;;;;;;3.72;3.42;;;31.60;63.30;;;;;;5073528;28;20044;-51
2023/07/02 04:47:29;;;;;;;3.40;3.10;;;32.30;61.80;;;;;;5074957;28;20025;-51
2023/07/02 04:49:54;;;;;;;3.35;3.05;;;32.90;60.50;;;;;;5075124;28;20055;-54
2023/07/02 04:52:20;;;;;;;4.63;3.00;;;33.50;59.60;;;;;;5075860;28;20033;-51
2023/07/02 04:54:45;;;;;;;3.95;2.83;;;34.00;58.70;;;;;;5075835;28;20020;-52
2023/07/02 04:57:13;;;;;;;3.17;2.88;;;34.50;57.90;;;;;;5075171;28;20041;-53
2023/07/02 04:59:38;;;;;;;3.58;2.90;;;34.90;57.00;;;;;;5076292;28;20017;-51
2023/07/02 05:02:04;;;;;;;3.33;3.03;;;35.30;56.30;;;;;;5076273;28;20013;-54
2023/07/02 05:04:30;;;;;;;3.22;2.92;;;35.60;55.50;;;;;;5076081;28;20017;-54
2023/07/02 05:06:55;;;;;;;2.92;2.67;;;35.90;54.80;;;;;;5076350;28;20031;-50
2023/07/02 05:09:21;;;;;;;3.00;2.70;;;36.20;54.30;;;;;;5076581;28;20021;-51
2023/07/02 05:11:46;;;;;;;2.80;2.60;;;36.40;53.70;;;;;;5076505;28;20017;-50
2023/07/02 05:14:12;;;;;;;2.47;2.28;;;36.70;53.40;;;;;;5076347;28;20032;-51
2023/07/02 05:16:38;;;;;;;3.15;2.85;;;36.90;52.90;;;;;;5076401;28;20040;-52
2023/07/02 05:19:03;;;;;;;2.70;2.50;;;37.10;52.60;;;;;;5076364;28;20059;-52
2023/07/02 05:21:29;;;;;;;2.72;2.50;;;37.20;51.80;;;;;;5076187;28;20036;-52
2023/07/02 05:23:54;;;;;;;2.75;2.55;;;37.40;51.10;;;;;;5075779;28;20032;-53
2023/07/02 05:26:20;;;;;;;3.22;2.42;;;37.40;50.40;;;;;;5075155;28;20087;-53
2023/07/02 05:28:46;;;;;;;3.50;2.63;;;37.20;49.80;;;;;;5073767;28;20080;-52
2023/07/02 05:31:11;;;;;;;4.13;3.00;;;36.80;49.80;;;;;;5075063;28;20025;-54
2023/07/02 05:33:38;;;;;;;3.28;2.97;;;36.20;50.00;;;;;;5076009;28;20029;-52
2023/07/02 05:36:04;;;;;;;3.17;2.88;;;35.50;50.40;;;;;;5075985;28;20489;-53
2023/07/02 05:38:30;;;;;;;3.35;3.05;;;34.90;51.10;;;;;;5077202;28;20104;-53
2023/07/02 05:40:55;;;;;;;3.30;3.00;;;34.30;51.50;;;;;;5078025;28;20068;-52
2023/07/02 05:43:21;;;;;;;4.63;3.30;;;33.70;52.10;;;;;;5078284;28;20033;-52
2023/07/02 05:45:47;;;;;;;3.70;3.40;;;33.20;52.80;;;;;;5078322;28;20012;-52
2023/07/02 05:48:12;;;;;;;4.53;3.70;;;32.70;53.20;;;;;;5079129;28;20060;-54
2023/07/02 05:50:38;;;;;;;4.28;3.72;;;32.40;53.70;;;;;;5079347;28;20037;-52
2023/07/02 05:53:04;;;;;;;4.03;3.20;;;32.10;54.20;;;;;;5079582;28;20021;-51
2023/07/02 05:55:29;;;;;;;4.13;3.70;;;31.80;54.50;;;;;;5079550;28;20005;-51
2023/07/02 05:57:57;;;;;;;4.40;3.85;;;31.60;55.00;;;;;;5079525;28;20037;-50
2023/07/02 06:00:23;;;;;;;5.20;4.15;;;31.40;55.30;;;;;;5079823;28;20050;-51
2023/07/02 06:02:48;;;;;;;4.85;4.10;;;31.20;55.70;;;;;;5079339;28;20052;-51
2023/07/02 06:05:14;;;;;;;4.95;4.45;;;31.00;56.00;;;;;;5079313;28;20339;-51
2023/07/02 06:07:39;;;;;;;4.25;3.85;;;30.80;56.20;;;;;;5079562;28;20021;-49
2023/07/02 06:10:05;;;;;;;4.57;4.07;;;30.60;56.30;;;;;;5079367;28;20032;-52
2023/07/02 06:12:31;;;;;;;4.53;4.13;;;30.40;56.50;;;;;;5079108;28;20024;-51
2023/07/02 06:14:57;;;;;;;4.90;4.40;;;30.30;56.70;;;;;;5079349;28;20006;-52
2023/07/02 06:17:24;;;;;;;4.57;4.18;;;30.10;56.90;;;;;;5079237;28;20069;-49
2023/07/02 06:19:50;;;;;;;4.78;4.20;;;30.00;57.20;;;;;;5079170;28;20045;-51
2023/07/02 06:22:16;;;;;;;4.60;3.90;;;29.80;57.60;;;;;;5078826;28;20013;-53
2023/07/02 06:24:41;;;;;;;4.40;4.00;;;29.70;58.40;;;;;;5078658;28;20020;-50
2023/07/02 06:27:07;;;;;;;5.70;4.90;;;29.50;58.00;;;;;;5078555;28;20039;-51
2023/07/02 06:29:32;;;;;;;5.10;4.60;;;29.40;58.40;;;;;;5078821;28;20005;-50
2023/07/02 06:31:59;;;;;;;4.57;4.18;;;29.30;58.90;;;;;;5078120;28;20069;-53
2023/07/02 06:34:25;;;;;;;5.10;4.60;;;29.30;59.10;;;;;;5078192;28;20013;-50
2023/07/02 06:36:50;;;;;;;4.75;4.35;;;29.20;59.20;;;;;;5078155;28;20019;-49
2023/07/02 06:39:16;;;;;;;5.07;4.53;;;29.10;59.40;;;;;;5077877;28;20052;-51
2023/07/02 06:41:41;;;;;;;5.13;4.63;;;29.10;59.80;;;;;;5076980;28;20040;-49
2023/07/02 06:44:07;;;;;;;5.47;4.85;;;29.00;59.90;;;;;;5077870;28;20021;-52
2023/07/02 06:46:32;;;;;;;7.28;6.57;;;28.90;60.30;;;;;;5077580;28;20054;-51
2023/07/02 06:48:58;;;;;;;8.38;7.55;;;28.80;60.60;;;;;;5077252;28;20020;-50
2023/07/02 06:51:26;;;;;;;8.35;7.55;;;28.80;60.80;;;;;;5077177;28;20033;-50
2023/07/02 06:53:51;;;;;;;8.48;7.68;;;28.70;61.00;;;;;;5077592;28;20009;-50
2023/07/02 06:56:17;;;;;;;6.97;6.28;;;28.60;61.30;;;;;;5077232;28;20040;-52
2023/07/02 06:58:43;;;;;;;7.15;6.45;;;28.60;61.70;;;;;;5077248;28;20025;-50
2023/07/02 07:01:09;;;;;;;8.52;7.63;;;28.50;62.00;;;;;;5077653;28;20013;-52
2023/07/02 07:03:35;;;;;;;8.15;7.35;;;28.50;62.10;;;;;;5077050;28;20092;-49
2023/07/02 07:06:01;;;;;;;7.80;7.00;;;28.40;62.30;;;;;;5077099;28;20138;-50
2023/07/02 07:08:27;;;;;;;8.32;7.30;;;28.40;62.50;;;;;;5077071;28;20036;-54
2023/07/02 07:10:52;;;;;;;7.25;6.38;;;28.30;62.70;;;;;;5076831;28;20036;-51
2023/07/02 07:13:18;;;;;;;7.13;6.20;;;28.30;62.40;;;;;;5076741;28;20025;-51
2023/07/02 07:15:44;;;;;;;7.50;6.32;;;28.20;62.60;;;;;;5076511;28;20025;-53
2023/07/02 07:18:10;;;;;;;6.63;5.78;;;28.10;62.50;;;;;;5076495;28;20110;-51
2023/07/02 07:20:38;;;;;;;7.38;5.63;;;28.00;62.60;;;;;;5076230;28;20005;-50
2023/07/02 07:23:03;;;;;;;6.25;5.65;;;28.00;62.70;;;;;;5076232;28;20060;-51
2023/07/02 07:25:29;;;;;;;6.35;5.75;;;27.90;62.80;;;;;;5075912;28;20048;-53
2023/07/02 07:27:55;;;;;;;5.97;5.38;;;27.80;62.70;;;;;;5076484;28;20374;-49
2023/07/02 07:30:24;;;;;;;5.97;5.38;;;27.80;62.90;;;;;;5075872;28;20033;-53
2023/07/02 07:32:50;;;;;;;5.88;5.30;;;27.70;62.70;;;;;;5076435;28;20039;-49
2023/07/02 07:35:16;;;;;;;5.15;4.65;;;27.70;62.90;;;;;;5076189;28;20033;-52
2023/07/02 07:37:42;;;;;;;5.45;4.70;;;27.60;63.00;;;;;;5076428;28;20017;-49
2023/07/02 07:40:08;;;;;;;5.70;5.10;;;27.70;63.50;;;;;;5076734;28;20053;-51
2023/07/02 07:42:34;;;;;;;6.35;5.00;;;27.70;63.40;;;;;;5076436;28;20145;-49
2023/07/02 07:44:59;;;;;;;6.13;5.53;;;27.70;63.40;;;;;;5075552;28;20029;-50
2023/07/02 07:47:25;;;;;;;5.38;4.88;;;27.70;63.60;;;;;;5076354;28;20021;-51
2023/07/02 07:49:50;;;;;;;5.10;4.60;;;27.70;63.80;;;;;;5076471;28;20013;-51
2023/07/02 07:52:16;;;;;;;6.03;4.63;;;27.70;63.60;;;;;;5075924;28;20036;-52
2023/07/02 07:54:42;;;;;;;5.30;4.80;;;27.70;63.60;;;;;;5075816;28;20032;-53
2023/07/02 07:57:07;;;;;;;5.50;4.85;;;27.60;63.90;;;;;;5074647;28;20020;-52
2023/07/02 07:59:33;;;;;;;5.75;5.15;;;27.70;64.00;;;;;;5076172;28;20048;-52
2023/07/02 08:01:59;;;;;;;6.03;4.95;;;27.60;64.00;;;;;;5075675;28;20021;-51
2023/07/02 08:04:24;;;;;;;4.82;4.38;;;27.60;64.00;;;;;;5075963;28;20020;-53
2023/07/02 08:06:50;;;;;;;5.18;4.57;;;27.60;64.10;;;;;;5075227;28;20047;-54
2023/07/02 08:09:16;;;;;;;6.38;4.57;;;27.60;64.20;;;;;;5075554;28;20020;-51
2023/07/02 08:11:41;;;;;;;5.20;4.70;;;27.60;64.30;;;;;;5075589;28;20021;-52
2023/07/02 08:14:07;;;;;;;5.32;4.82;;;27.60;64.40;;;;;;5075604;28;20029;-53
2023/07/02 08:16:32;;;;;;;5.13;4.57;;;27.60;64.40;;;;;;5074112;28;20111;-51
2023/07/02 08:18:58;;;;;;;5.30;4.80;;;27.60;64.60;;;;;;5073669;28;20024;-54
2023/07/02 08:21:24;;;;;;;5.97;5.38;;;27.60;64.70;;;;;;5074017;28;20036;-49
2023/07/02 08:23:49;;;;;;;6.05;5.45;;;27.60;64.80;;;;;;5074239;28;20036;-51
2023/07/02 08:26:15;;;;;;;5.20;4.70;;;27.60;65.00;;;;;;5074146;28;20025;-52
2023/07/02 08:28:41;;;;;;;5.03;4.53;;;27.60;65.10;;;;;;5074159;28;20052;-49
2023/07/02 08:31:06;;;;;;;5.18;4.68;;;27.70;65.20;;;;;;5071914;28;20017;-53
2023/07/02 08:33:32;;;;;;;5.18;4.68;;;27.70;65.80;;;;;;5072809;28;20047;-50
2023/07/02 08:35:57;;;;;;;5.47;4.97;;;27.70;65.00;;;;;;5074017;28;20032;-52
2023/07/02 08:38:23;;;;;;;5.18;4.68;;;27.70;65.30;;;;;;5075079;28;20048;-50
2023/07/02 08:40:49;;;;;;;5.03;4.60;;;27.60;65.30;;;;;;5075418;28;20050;-53
2023/07/02 08:43:15;;;;;;;5.45;4.90;;;27.60;65.50;;;;;;5075807;28;20035;-50
2023/07/02 08:45:42;;;;;;;5.30;4.45;;;27.60;65.40;;;;;;5075570;28;20047;-50
2023/07/02 08:48:08;;;;;;;5.05;4.55;;;27.60;65.50;;;;;;5075789;28;20042;-51
2023/07/02 08:50:34;;;;;;;5.30;4.80;;;27.50;65.40;;;;;;5075638;28;20036;-53
2023/07/02 08:52:59;;;;;;;5.70;5.10;;;27.50;65.50;;;;;;5074872;28;20021;-53
2023/07/02 08:55:29;;;;;;;6.38;5.15;;;27.50;66.00;;;;;;5073750;28;20041;-49
2023/07/02 08:58:00;;;;;;;6.37;5.20;;;27.50;66.10;;;;;;5075312;28;20006;-51
2023/07/02 09:00:26;;;;;;;5.32;4.82;;;27.40;66.20;;;;;;5074961;28;20035;-49
2023/07/02 09:02:52;;;;;;;6.88;4.50;;;27.40;66.50;;;;;;5075214;28;20032;-51
2023/07/02 09:05:18;;;;;;;6.40;4.53;;;27.40;66.40;;;;;;5076514;28;20052;-53
2023/07/02 09:07:45;;;;;;;5.53;5.03;;;27.40;66.30;;;;;;5078129;28;20056;-50
2023/07/02 09:10:11;;;;;;;5.40;4.75;;;27.30;66.50;;;;;;5078844;28;20013;-51
2023/07/02 09:12:38;;;;;;;6.40;4.70;;;27.30;66.50;;;;;;5078588;28;20587;-51
2023/07/02 09:15:08;;;;;;;6.03;5.25;;;27.30;66.40;;;;;;5078791;28;20005;-53
2023/07/02 09:17:36;;;;;;;5.55;4.82;;;27.20;66.60;;;;;;5079223;28;20021;-51
2023/07/02 09:20:10;;;;;;;5.20;4.70;;;27.20;67.00;;;;;;5078694;28;20037;-51
2023/07/02 09:22:36;;;;;;;5.38;4.75;;;27.20;67.00;;;;;;5079538;28;20028;-50
2023/07/02 09:25:03;;;;;;;6.03;5.43;;;27.20;66.90;;;;;;5079227;28;20100;-51
2023/07/02 09:27:36;;;;;;;6.25;5.28;;;27.10;67.40;;;;;;5078923;28;20032;-51
2023/07/02 09:30:14;;;;;;;5.70;5.20;;;27.10;67.30;;;;;;5079138;28;20035;-50
2023/07/02 09:32:40;;;;;;;6.10;4.60;;;27.00;67.30;;;;;;5078709;28;20113;-52
2023/07/02 09:35:05;;;;;;;5.20;4.70;;;27.00;67.70;;;;;;5079175;28;20029;-51
2023/07/02 09:37:32;;;;;;;5.60;4.95;;;27.00;67.90;;;;;;5079204;28;20024;-53
2023/07/02 09:39:58;;;;;;;6.30;5.30;;;27.00;67.90;;;;;;5079144;28;20016;-53
2023/07/02 09:42:25;;;;;;;5.68;5.03;;;26.90;67.80;;;;;;5078998;28;20040;-53
2023/07/02 09:44:59;;;;;;;5.95;5.07;;;26.90;67.80;;;;;;5079151;28;20033;-52
2023/07/02 09:47:26;;;;;;;6.38;5.30;;;26.90;68.00;;;;;;5079100;28;20039;-51
2023/07/02 09:49:59;;;;;;;6.00;5.40;;;26.90;68.20;;;;;;5079169;28;20040;-50
2023/07/02 09:52:27;;;;;;;5.72;5.15;;;26.80;68.30;;;;;;5079110;28;20025;-49
2023/07/02 09:54:53;;;;;;;7.60;5.28;;;26.80;68.20;;;;;;5079003;28;20293;-51
2023/07/02 09:57:18;;;;;;;6.32;5.57;;;26.80;68.50;;;;;;5078530;28;20040;-52
2023/07/02 09:59:44;;;;;;;6.32;5.72;;;26.80;69.10;;;;;;5078424;28;20009;-50
2023/07/02 10:02:11;;;;;;;7.90;5.82;;;26.80;69.40;;;;;;5078703;28;20112;-52
2023/07/02 10:04:44;;;;;;;6.32;5.43;;;26.70;69.60;;;;;;5078608;28;20005;-49
2023/07/02 10:07:10;;;;;;;6.40;5.80;;;26.70;69.90;;;;;;5078838;28;20037;-50
2023/07/02 10:09:38;;;;;;;6.15;5.47;;;26.70;70.10;;;;;;5078657;28;20025;-53
2023/07/02 10:12:25;;;;;;;7.85;5.70;;;26.70;70.30;;;;;;5078531;28;20029;-52
2023/07/02 10:14:53;;;;;;;6.57;5.70;;;26.70;70.20;;;;;;5078872;28;20009;-51
2023/07/02 10:17:26;;;;;;;6.40;5.65;;;26.70;70.40;;;;;;5078019;28;20081;-51
2023/07/02 10:19:54;;;;;;;6.47;5.88;;;26.60;70.50;;;;;;5078342;28;20029;-49
2023/07/02 10:22:20;;;;;;;6.45;5.65;;;26.70;70.70;;;;;;5078264;28;20015;-50
2023/07/02 10:24:57;;;;;;;7.03;6.05;;;26.60;70.90;;;;;;5078274;28;20025;-51
2023/07/02 10:27:42;;;;;;;6.18;5.57;;;26.60;71.00;;;;;;5076903;28;20057;-50
2023/07/02 10:30:09;;;;;;;6.82;5.88;;;26.50;70.90;;;;;;5077127;28;20063;-49
2023/07/02 10:32:37;;;;;;;8.00;6.32;;;26.60;71.10;;;;;;5077366;28;20221;-53
2023/07/02 10:35:13;;;;;;;7.28;6.57;;;26.60;71.10;;;;;;5077666;28;20014;-50
2023/07/02 10:37:39;;;;;;;6.38;5.68;;;26.60;70.80;;;;;;5077415;28;20088;-49
2023/07/02 10:40:09;;;;;;;6.75;6.05;;;26.70;70.60;;;;;;5076346;28;20036;-50
2023/07/02 10:42:52;;;;;;;7.32;6.03;;;26.70;70.50;;;;;;5076791;28;20055;-53
2023/07/02 10:45:19;;;;;;;9.20;5.97;;;26.70;70.50;;;;;;5075599;28;20025;-50
2023/07/02 10:47:45;;;;;;;7.38;6.32;;;26.80;70.60;;;;;;5076360;28;20056;-50
2023/07/02 10:50:21;;;;;;;6.82;5.97;;;26.80;70.50;;;;;;5076897;28;20043;-53
2023/07/02 10:52:47;;;;;;;6.88;5.90;;;26.80;70.40;;;;;;5077655;28;20012;-51
2023/07/02 10:55:24;;;;;;;6.70;6.00;;;26.90;70.80;;;;;;5076638;28;20037;-50
2023/07/02 10:58:01;;;;;;;8.00;5.88;;;27.00;70.90;;;;;;5077299;28;20017;-52
2023/07/02 11:00:27;;;;;;;7.45;6.05;;;27.00;70.70;;;;;;5077664;28;20040;-52
2023/07/02 11:02:53;;;;;;;6.75;6.05;;;27.10;70.70;;;;;;5077723;28;20021;-52
2023/07/02 11:05:18;;;;;;;6.65;6.05;;;27.10;71.10;;;;;;5078123;28;20100;-53
2023/07/02 11:07:45;;;;;;;6.25;5.65;;;27.10;71.20;;;;;;5077904;28;20009;-50
2023/07/02 11:10:18;;;;;;;5.97;5.43;;;27.20;71.00;;;;;;5078234;28;20021;-50
2023/07/02 11:12:44;;;;;;;5.70;5.20;;;27.20;71.00;;;;;;5078462;28;20069;-51
2023/07/02 11:15:14;;;;;;;5.72;5.18;;;27.20;71.30;;;;;;5078458;28;20059;-52
2023/07/02 11:17:42;;;;;;;6.68;4.78;;;27.30;71.20;;;;;;5078353;28;20005;-49
2023/07/02 11:20:10;;;;;;;6.65;5.25;;;27.30;71.20;;;;;;5077925;28;20041;-51
2023/07/02 11:22:37;;;;;;;8.60;5.20;;;27.30;71.80;;;;;;5078432;28;20039;-51
2023/07/02 11:25:16;;;;;;;8.40;5.13;;;27.30;70.40;;;;;;5078373;28;20041;-50
2023/07/02 11:27:42;;;;;;;5.47;4.82;;;27.40;69.90;;;;;;5077543;28;20020;-51
2023/07/02 11:30:09;;;;;;;8.80;4.95;;;27.50;70.10;;;;;;5078118;28;20013;-50
2023/07/02 11:32:49;;;;;;;4.68;4.13;;;27.50;69.70;;;;;;5078055;28;20064;-51
2023/07/02 11:35:15;;;;;;;5.50;3.88;;;27.50;69.50;;;;;;5078209;28;20035;-49
2023/07/02 11:37:42;;;;;;;4.03;3.50;;;27.50;69.10;;;;;;5078000;28;20465;-49
2023/07/02 11:40:08;;;;;;;4.00;3.22;;;27.60;68.10;;;;;;5078048;28;20024;-50
2023/07/02 11:42:34;;;;;;;4.63;3.17;;;27.60;66.50;;;;;;5077882;28;20051;-50
2023/07/02 11:44:59;;;;;;;4.60;3.50;;;27.60;65.30;;;;;;5077737;28;20017;-49
2023/07/02 11:47:27;;;;;;;3.92;3.15;;;27.70;64.30;;;;;;5078115;28;20021;-53
2023/07/02 11:49:54;;;;;;;2.85;2.65;;;27.70;63.10;;;;;;5078034;28;20035;-51
2023/07/02 11:52:20;;;;;;;5.10;3.08;;;27.70;62.30;;;;;;5077974;28;20013;-54
2023/07/02 11:54:46;;;;;;;5.05;3.40;;;27.80;61.80;;;;;;5078020;28;20021;-51
2023/07/02 11:57:12;;;;;;;3.55;2.92;;;27.80;60.60;;;;;;5078046;28;20077;-50
2023/07/02 11:59:38;;;;;;;3.42;3.13;;;27.90;60.20;;;;;;5077988;28;20092;-53
2023/07/02 12:02:04;;;;;;;3.42;3.10;;;27.90;59.90;;;;;;5078000;28;20017;-50
2023/07/02 12:04:30;;;;;;;4.05;3.00;;;27.90;59.60;;;;;;5077691;28;20021;-49
2023/07/02 12:06:55;;;;;;;3.88;2.85;;;28.00;59.20;;;;;;5077945;28;20032;-51
2023/07/02 12:09:21;;;;;;;3.50;3.10;;;28.00;58.60;;;;;;5077844;28;20017;-53
2023/07/02 12:11:47;;;;;;;3.28;2.80;;;28.00;58.20;;;;;;5077614;28;20021;-51
2023/07/02 12:14:13;;;;;;;3.78;3.10;;;28.00;58.10;;;;;;5077830;28;20013;-52
2023/07/02 12:16:38;;;;;;;3.58;3.08;;;28.10;58.20;;;;;;5077587;28;20032;-50
2023/07/02 12:19:04;;;;;;;3.47;3.17;;;28.10;58.00;;;;;;5077658;28;20017;-51
2023/07/02 12:21:29;;;;;;;3.60;2.88;;;28.10;57.80;;;;;;5077545;28;20061;-54
2023/07/02 12:23:55;;;;;;;3.35;2.90;;;28.20;57.70;;;;;;5077632;28;20052;-50
2023/07/02 12:26:21;;;;;;;5.13;2.92;;;28.30;57.40;;;;;;5077592;28;20013;-52
2023/07/02 12:28:46;;;;;;;2.72;2.53;;;28.30;57.20;;;;;;5077732;28;20021;-50
2023/07/02 12:31:12;;;;;;;3.70;3.20;;;28.40;57.00;;;;;;5077513;28;20033;-49
2023/07/02 12:33:39;;;;;;;2.95;2.70;;;28.50;56.80;;;;;;5077509;28;20036;-54
2023/07/02 12:36:05;;;;;;;3.20;2.90;;;28.50;56.40;;;;;;5077532;28;20016;-50
2023/07/02 12:38:31;;;;;;;3.17;2.88;;;28.50;56.20;;;;;;5077358;28;20073;-51
2023/07/02 12:40:56;;;;;;;3.13;2.50;;;28.50;56.00;;;;;;5076663;28;20013;-52
2023/07/02 12:43:22;;;;;;;4.65;2.83;;;28.60;55.90;;;;;;5077316;28;20028;-54
2023/07/02 12:45:48;;;;;;;2.90;2.60;;;28.60;55.80;;;;;;5077233;28;20017;-54